createdAt,value
2022-10-14T00:01:05.889Z,11.60
2022-10-14T00:03:33.160Z,11.50
2022-10-14T00:05:59.867Z,11.50
2022-10-14T00:08:26.646Z,11.50
2022-10-14T00:10:54.382Z,11.60
2022-10-14T00:13:21.207Z,11.50
2022-10-14T00:15:47.948Z,11.60
2022-10-14T00:18:16.789Z,11.60
2022-10-14T00:20:57.095Z,11.60
2022-10-14T00:23:24.655Z,11.50
2022-10-14T00:25:51.531Z,11.60
2022-10-14T00:28:19.711Z,11.60
2022-10-14T00:30:56.543Z,11.60
2022-10-14T00:33:24.193Z,11.60
2022-10-14T00:36:00.212Z,11.60
2022-10-14T00:38:34.480Z,11.60
2022-10-14T00:41:01.675Z,11.60
2022-10-14T00:43:28.996Z,11.60
2022-10-14T00:45:55.783Z,11.60
2022-10-14T00:48:26.292Z,11.60
2022-10-14T00:50:57.188Z,11.60
2022-10-14T00:53:24.126Z,11.60
2022-10-14T00:55:52.794Z,11.60
2022-10-14T00:58:23.414Z,11.60
2022-10-14T01:00:50.184Z,11.50
2022-10-14T01:03:20.449Z,11.50
2022-10-14T01:06:18.173Z,11.50
2022-10-14T01:09:04.561Z,11.50
2022-10-14T01:11:40.985Z,11.50
2022-10-14T01:14:22.715Z,11.40
2022-10-14T01:17:00.543Z,11.40
2022-10-14T01:19:28.207Z,11.40
2022-10-14T01:22:11.850Z,11.40
2022-10-14T01:25:14.347Z,11.40
2022-10-14T01:27:59.125Z,11.30
2022-10-14T01:30:35.160Z,11.30
2022-10-14T01:33:20.228Z,11.40
2022-10-14T01:36:15.096Z,11.50
2022-10-14T01:38:49.130Z,11.60
2022-10-14T01:41:23.461Z,11.40
2022-10-14T01:43:52.234Z,11.40
2022-10-14T01:46:22.000Z,11.40
2022-10-14T01:48:53.824Z,11.50
2022-10-14T01:51:33.967Z,11.60
2022-10-14T01:54:06.482Z,11.60
2022-10-14T01:56:40.196Z,11.60
2022-10-14T01:59:10.162Z,11.60
2022-10-14T02:01:37.247Z,11.70
2022-10-14T02:04:18.685Z,11.70
2022-10-14T02:07:11.459Z,11.60
2022-10-14T02:09:43.125Z,11.60
2022-10-14T02:12:47.941Z,11.70
2022-10-14T02:15:32.872Z,11.60
2022-10-14T02:18:17.780Z,11.60
2022-10-14T02:20:44.462Z,11.60
2022-10-14T02:23:13.436Z,11.60
2022-10-14T02:25:43.475Z,11.60
2022-10-14T02:28:15.256Z,11.60
2022-10-14T02:30:45.771Z,11.60
2022-10-14T02:33:20.862Z,11.60
2022-10-14T02:35:49.915Z,11.60
2022-10-14T02:38:19.595Z,11.60
2022-10-14T02:40:49.828Z,11.60
2022-10-14T02:43:17.399Z,11.60
2022-10-14T02:45:44.676Z,11.60
2022-10-14T02:48:12.530Z,11.60
2022-10-14T02:50:40.316Z,11.40
2022-10-14T02:53:07.946Z,11.40
2022-10-14T02:55:34.668Z,11.50
2022-10-14T02:58:01.681Z,11.50
2022-10-14T03:00:28.541Z,11.40
2022-10-14T03:02:56.333Z,11.50
2022-10-14T03:05:25.201Z,11.40
2022-10-14T03:07:53.254Z,11.50
2022-10-14T03:10:21.809Z,11.40
2022-10-14T03:12:48.993Z,11.40
2022-10-14T03:15:25.107Z,11.50
2022-10-14T03:17:52.744Z,11.40
2022-10-14T03:20:24.158Z,11.40
2022-10-14T03:22:55.551Z,11.40
2022-10-14T03:25:24.112Z,11.40
2022-10-14T03:28:04.759Z,11.40
2022-10-14T03:30:42.161Z,11.50
2022-10-14T03:33:15.556Z,11.50
2022-10-14T03:35:53.510Z,11.60
2022-10-14T03:38:28.428Z,11.60
2022-10-14T03:40:58.521Z,11.60
2022-10-14T03:43:25.362Z,11.60
2022-10-14T03:45:57.112Z,11.60
2022-10-14T03:48:25.683Z,11.50
2022-10-14T03:50:56.522Z,11.50
2022-10-14T03:53:24.075Z,11.60
2022-10-14T03:55:51.053Z,11.60
2022-10-14T03:58:17.873Z,11.60
2022-10-14T04:00:52.511Z,11.60
2022-10-14T04:03:32.999Z,11.50
2022-10-14T04:06:00.522Z,11.60
2022-10-14T04:08:29.452Z,11.50
2022-10-14T04:11:01.047Z,11.50
2022-10-14T04:13:32.841Z,11.40
2022-10-14T04:16:08.175Z,11.50
2022-10-14T04:18:55.177Z,11.40
2022-10-14T04:21:22.780Z,11.30
2022-10-14T04:23:52.502Z,11.20
2022-10-14T04:26:29.697Z,11.20
2022-10-14T04:28:57.932Z,11.30
2022-10-14T04:31:33.268Z,11.40
2022-10-14T04:34:02.420Z,11.50
2022-10-14T04:36:37.070Z,11.40
2022-10-14T04:39:11.069Z,11.30
2022-10-14T04:41:38.146Z,11.40
2022-10-14T04:44:05.611Z,11.50
2022-10-14T04:46:38.833Z,11.60
2022-10-14T04:49:05.595Z,11.60
2022-10-14T04:51:38.501Z,11.60
2022-10-14T04:54:17.804Z,11.60
2022-10-14T04:56:49.839Z,11.60
2022-10-14T04:59:16.906Z,11.70
2022-10-14T05:02:09.786Z,11.60
2022-10-14T05:04:46.226Z,11.60
2022-10-14T05:07:13.984Z,11.50
2022-10-14T05:09:44.067Z,11.30
2022-10-14T05:12:23.925Z,11.30
2022-10-14T05:14:56.489Z,11.30
2022-10-14T05:17:30.024Z,11.30
2022-10-14T05:19:56.741Z,11.30
2022-10-14T05:22:26.111Z,11.30
2022-10-14T05:24:53.212Z,11.40
2022-10-14T05:27:20.451Z,11.50
2022-10-14T05:29:48.845Z,11.40
2022-10-14T05:32:16.345Z,11.40
2022-10-14T05:34:47.628Z,11.40
2022-10-14T05:37:23.306Z,11.30
2022-10-14T05:39:52.533Z,11.50
2022-10-14T05:42:23.297Z,11.50
2022-10-14T05:44:53.177Z,11.50
2022-10-14T05:47:20.449Z,11.60
2022-10-14T05:49:51.380Z,11.60
2022-10-14T05:52:18.129Z,11.60
2022-10-14T05:54:45.395Z,11.60
2022-10-14T05:57:18.282Z,11.50
2022-10-14T05:59:45.243Z,11.50
2022-10-14T06:02:13.859Z,11.50
2022-10-14T06:04:42.455Z,11.60
2022-10-14T06:07:10.346Z,11.50
2022-10-14T06:09:38.369Z,11.60
2022-10-14T06:12:05.668Z,11.70
2022-10-14T06:14:33.018Z,11.60
2022-10-14T06:17:00.294Z,11.70
2022-10-14T06:19:27.168Z,11.80
2022-10-14T06:21:56.331Z,11.80
2022-10-14T06:24:23.018Z,11.70
2022-10-14T06:26:49.842Z,11.70
2022-10-14T06:29:17.297Z,11.70
2022-10-14T06:31:44.044Z,11.70
2022-10-14T06:34:10.986Z,11.70
2022-10-14T06:36:40.092Z,11.70
2022-10-14T06:39:06.815Z,11.80
2022-10-14T06:41:33.550Z,11.80
2022-10-14T06:44:00.258Z,11.90
2022-10-14T06:46:27.021Z,12.00
2022-10-14T06:48:53.687Z,12.00
2022-10-14T06:51:20.381Z,11.90
2022-10-14T06:53:47.074Z,11.90
2022-10-14T06:56:13.806Z,11.90
2022-10-14T06:58:40.489Z,11.90
2022-10-14T07:01:07.963Z,12.10
2022-10-14T07:03:39.325Z,12.20
2022-10-14T07:06:07.587Z,12.40
2022-10-14T07:08:34.797Z,12.50
2022-10-14T07:11:02.086Z,12.60
2022-10-14T07:13:29.267Z,12.70
2022-10-14T07:15:55.995Z,12.70
2022-10-14T07:18:22.714Z,12.80
2022-10-14T07:20:49.422Z,12.90
2022-10-14T07:23:16.752Z,13.00
2022-10-14T07:25:44.055Z,13.00
2022-10-14T07:28:10.847Z,13.00
2022-10-14T07:30:38.111Z,13.00
2022-10-14T07:33:04.871Z,12.90
2022-10-14T07:35:31.711Z,13.00
2022-10-14T07:37:59.454Z,13.20
2022-10-14T07:40:27.043Z,13.40
2022-10-14T07:42:53.754Z,13.60
2022-10-14T07:45:21.265Z,13.70
2022-10-14T07:47:49.679Z,13.60
2022-10-14T07:50:18.365Z,13.60
2022-10-14T07:52:45.154Z,13.70
2022-10-14T07:55:12.045Z,13.90
2022-10-14T07:57:38.816Z,13.90
2022-10-14T08:00:06.374Z,13.90
2022-10-14T08:02:38.738Z,13.90
2022-10-14T08:05:33.051Z,14.10
2022-10-14T08:07:52.682Z,14.20
2022-10-14T08:10:19.373Z,14.10
2022-10-14T08:12:46.293Z,14.10
2022-10-14T08:15:12.975Z,14.20
2022-10-14T08:17:39.659Z,14.20
2022-10-14T08:20:06.998Z,14.20
2022-10-14T08:22:33.897Z,14.20
2022-10-14T08:25:00.590Z,14.20
2022-10-14T08:27:27.421Z,14.30
2022-10-14T08:29:54.724Z,14.10
2022-10-14T08:32:23.557Z,14.10
2022-10-14T08:34:50.579Z,14.10
2022-10-14T08:37:17.307Z,14.20
2022-10-14T08:39:44.407Z,14.20
2022-10-14T08:42:30.998Z,14.00
2022-10-14T08:45:31.917Z,13.80
2022-10-14T08:48:02.874Z,13.70
2022-10-14T08:50:43.709Z,13.50
2022-10-14T08:53:31.923Z,13.50
2022-10-14T08:56:01.220Z,13.40
2022-10-14T08:58:45.194Z,13.50
2022-10-14T09:01:28.744Z,13.70
2022-10-14T09:04:02.302Z,13.90
2022-10-14T09:06:34.519Z,13.90
2022-10-14T09:09:09.001Z,14.10
2022-10-14T09:11:41.068Z,14.30
2022-10-14T09:14:13.701Z,14.50
2022-10-14T09:16:44.021Z,14.50
2022-10-14T09:19:14.491Z,14.50
2022-10-14T09:21:53.490Z,14.40
2022-10-14T09:24:25.284Z,14.30
2022-10-14T09:26:59.759Z,14.20
2022-10-14T09:29:37.816Z,14.20
2022-10-14T09:32:12.264Z,14.20
2022-10-14T09:34:49.049Z,14.30
2022-10-14T09:37:19.580Z,14.40
2022-10-14T09:39:47.359Z,14.40
2022-10-14T09:42:19.941Z,14.20
2022-10-14T09:47:55.924Z,14.10
2022-10-14T09:50:29.713Z,14.10
2022-10-14T09:53:01.555Z,14.10
2022-10-14T09:55:28.639Z,14.10
2022-10-14T09:58:14.135Z,14.20
2022-10-14T10:00:41.281Z,14.20
2022-10-14T10:03:08.105Z,14.20
2022-10-14T10:05:36.109Z,14.40
2022-10-14T10:08:18.300Z,14.40
2022-10-14T10:11:05.566Z,14.50
2022-10-14T10:13:45.011Z,14.40
2022-10-14T10:16:34.717Z,14.30
2022-10-14T10:19:34.846Z,14.30
2022-10-14T10:25:07.952Z,14.40
2022-10-14T10:27:46.536Z,14.50
2022-10-14T10:30:27.893Z,14.60
2022-10-14T10:33:00.236Z,14.80
2022-10-14T10:35:54.704Z,15.00
2022-10-14T10:38:21.386Z,15.10
2022-10-14T10:41:08.872Z,15.10
2022-10-14T10:43:42.515Z,15.10
2022-10-14T10:46:14.974Z,15.00
2022-10-14T10:48:57.638Z,14.90
2022-10-14T10:51:38.097Z,14.90
2022-10-14T10:54:19.371Z,14.90
2022-10-14T10:56:54.664Z,14.90
2022-10-14T10:59:47.354Z,15.00
2022-10-14T11:02:54.811Z,15.00
2022-10-14T11:05:33.448Z,15.10
2022-10-14T11:08:39.104Z,15.20
2022-10-14T11:11:43.001Z,15.30
2022-10-14T11:14:15.871Z,15.40
2022-10-14T11:16:57.907Z,15.30
2022-10-14T11:19:34.459Z,15.30
2022-10-14T11:22:58.824Z,15.40
2022-10-14T11:25:51.157Z,15.60
2022-10-14T11:28:36.306Z,15.40
2022-10-14T11:31:26.710Z,15.50
2022-10-14T11:34:15.762Z,15.60
2022-10-14T11:37:08.960Z,15.50
2022-10-14T11:39:57.941Z,15.40
2022-10-14T11:42:27.426Z,15.40
2022-10-14T11:45:02.072Z,15.40
2022-10-14T11:47:34.457Z,15.30
2022-10-14T11:50:01.192Z,15.20
2022-10-14T11:52:41.445Z,15.10
2022-10-14T11:55:29.032Z,15.00
2022-10-14T11:58:24.207Z,15.10
2022-10-14T12:00:54.769Z,15.10
2022-10-14T12:03:48.455Z,15.20
2022-10-14T12:06:25.314Z,15.20
2022-10-14T12:09:03.322Z,15.10
2022-10-14T12:11:38.303Z,14.80
2022-10-14T12:14:24.837Z,14.70
2022-10-14T12:16:53.116Z,14.70
2022-10-14T12:19:27.424Z,14.70
2022-10-14T12:21:58.953Z,14.70
2022-10-14T12:24:36.145Z,14.70
2022-10-14T12:27:05.768Z,14.80
2022-10-14T12:29:36.669Z,14.80
2022-10-14T12:32:03.314Z,14.70
2022-10-14T12:34:41.214Z,14.80
2022-10-14T12:37:34.967Z,14.80
2022-10-14T12:40:02.289Z,14.80
2022-10-14T12:43:03.001Z,14.70
2022-10-14T12:45:33.154Z,14.80
2022-10-14T12:48:03.412Z,14.90
2022-10-14T12:50:40.555Z,15.00
2022-10-14T12:53:18.572Z,14.80
2022-10-14T12:55:52.749Z,14.60
2022-10-14T12:58:52.957Z,14.50
2022-10-14T13:01:23.546Z,14.50
2022-10-14T13:06:36.604Z,14.60
2022-10-14T13:09:12.124Z,14.70
2022-10-14T13:11:43.662Z,14.80
2022-10-14T13:14:25.340Z,14.80
2022-10-14T13:16:52.008Z,14.80
2022-10-14T13:19:33.711Z,14.90
2022-10-14T13:22:02.545Z,15.00
2022-10-14T13:24:35.274Z,15.10
2022-10-14T13:27:29.956Z,15.10
2022-10-14T13:30:10.549Z,15.10
2022-10-14T13:32:49.025Z,15.10
2022-10-14T13:35:51.497Z,15.10
2022-10-14T13:38:21.723Z,15.00
2022-10-14T13:40:54.084Z,14.90
2022-10-14T13:43:33.657Z,14.90
2022-10-14T13:46:12.287Z,14.80
2022-10-14T13:48:48.758Z,14.70
2022-10-14T13:51:32.018Z,14.70
2022-10-14T13:54:17.712Z,14.50
2022-10-14T13:57:12.596Z,14.50
2022-10-14T14:00:33.156Z,14.60
2022-10-14T14:02:41.912Z,14.70
2022-10-14T14:05:16.157Z,14.80
2022-10-14T14:10:32.327Z,14.80
2022-10-14T14:13:04.900Z,14.80
2022-10-14T14:15:31.635Z,14.80
2022-10-14T14:17:58.439Z,14.70
2022-10-14T14:20:33.892Z,14.60
2022-10-14T14:23:00.690Z,14.70
2022-10-14T14:25:46.511Z,14.60
2022-10-14T14:28:18.860Z,14.60
2022-10-14T14:30:55.343Z,14.60
2022-10-14T14:33:44.030Z,14.60
2022-10-14T14:36:27.481Z,14.60
2022-10-14T14:39:02.074Z,14.70
2022-10-14T14:41:31.899Z,14.80
2022-10-14T14:46:52.660Z,14.80
2022-10-14T14:49:39.896Z,14.90
2022-10-14T14:52:07.287Z,14.90
2022-10-14T14:54:34.077Z,14.80
2022-10-14T14:57:00.918Z,14.80
2022-10-14T14:59:35.485Z,14.80
2022-10-14T15:02:16.797Z,14.80
2022-10-14T15:04:49.890Z,14.80
2022-10-14T15:07:21.549Z,14.80
2022-10-14T15:09:57.386Z,14.80
2022-10-14T15:12:28.116Z,14.80
2022-10-14T15:15:00.695Z,14.80
2022-10-14T15:17:36.751Z,14.70
2022-10-14T15:20:03.723Z,14.50
2022-10-14T15:22:36.118Z,14.50
2022-10-14T15:25:30.460Z,14.40
2022-10-14T15:27:59.557Z,14.40
2022-10-14T15:30:40.195Z,14.40
2022-10-14T15:33:13.204Z,14.50
2022-10-14T15:35:40.491Z,14.50
2022-10-14T15:38:16.638Z,14.40
2022-10-14T15:40:44.670Z,14.30
2022-10-14T15:43:17.890Z,14.10
2022-10-14T15:46:14.510Z,14.10
2022-10-14T15:48:46.996Z,14.10
2022-10-14T15:51:19.611Z,14.00
2022-10-14T15:53:46.775Z,13.80
2022-10-14T15:56:13.634Z,13.70
2022-10-14T15:58:40.473Z,13.60
2022-10-14T16:01:08.166Z,13.60
2022-10-14T16:03:40.166Z,13.50
2022-10-14T16:06:10.402Z,13.50
2022-10-14T16:08:38.991Z,13.50
2022-10-14T16:11:26.197Z,13.60
2022-10-14T16:13:53.287Z,13.50
2022-10-14T16:16:36.135Z,13.60
2022-10-14T16:19:03.239Z,13.40
2022-10-14T16:21:30.685Z,13.30
2022-10-14T16:23:58.993Z,13.30
2022-10-14T16:26:25.943Z,13.30
2022-10-14T16:28:52.913Z,13.40
2022-10-14T16:31:21.462Z,13.30
2022-10-14T16:33:56.773Z,13.20
2022-10-14T16:36:26.059Z,13.20
2022-10-14T16:38:54.864Z,13.10
2022-10-14T16:41:21.599Z,13.00
2022-10-14T16:43:48.531Z,13.00
2022-10-14T16:46:17.458Z,12.90
2022-10-14T16:48:46.696Z,12.80
2022-10-14T16:51:13.745Z,12.80
2022-10-14T16:53:40.892Z,12.80
2022-10-14T16:56:34.256Z,12.70
2022-10-14T16:59:01.895Z,12.70
2022-10-14T17:01:29.624Z,12.60
2022-10-14T17:03:57.540Z,12.50
2022-10-14T17:06:25.379Z,12.50
2022-10-14T17:08:53.088Z,12.40
2022-10-14T17:11:20.250Z,12.50
2022-10-14T17:13:47.049Z,12.50
2022-10-14T17:16:13.841Z,12.50
2022-10-14T17:18:43.077Z,12.50
2022-10-14T17:21:13.786Z,12.60
2022-10-14T17:23:42.585Z,12.70
2022-10-14T17:26:14.722Z,12.70
2022-10-14T17:28:42.413Z,12.70
2022-10-14T17:31:12.012Z,12.70
2022-10-14T17:33:39.625Z,12.80
2022-10-14T17:36:07.581Z,12.70
2022-10-14T17:38:35.614Z,12.70
2022-10-14T17:41:03.503Z,12.60
2022-10-14T17:43:31.020Z,12.50
2022-10-14T17:46:11.629Z,12.40
2022-10-14T17:48:42.220Z,12.40
2022-10-14T17:51:11.393Z,12.50
2022-10-14T17:53:39.193Z,12.40
2022-10-14T17:56:08.288Z,12.50
2022-10-14T17:58:35.139Z,12.50
2022-10-14T18:01:15.871Z,12.50
2022-10-14T18:03:44.965Z,12.50
2022-10-14T18:06:15.726Z,12.30
2022-10-14T18:08:44.246Z,12.30
2022-10-14T18:11:12.425Z,12.20
2022-10-14T18:16:14.320Z,12.30
2022-10-14T18:18:41.976Z,12.30
2022-10-14T18:21:09.907Z,12.20
2022-10-14T18:23:39.946Z,12.20
2022-10-14T18:26:15.297Z,12.10
2022-10-14T18:28:47.873Z,12.10
2022-10-14T18:31:19.697Z,12.10
2022-10-14T18:33:48.182Z,12.10
2022-10-14T18:36:17.903Z,12.00
2022-10-14T18:38:53.362Z,12.10
2022-10-14T18:41:20.987Z,12.10
2022-10-14T18:43:47.998Z,12.10
2022-10-14T18:46:17.241Z,12.20
2022-10-14T18:48:47.137Z,12.10
2022-10-14T18:51:15.784Z,12.10
2022-10-14T18:53:45.110Z,12.10
2022-10-14T18:56:19.561Z,12.10
2022-10-14T18:58:48.564Z,12.00
2022-10-14T19:01:16.317Z,12.10
2022-10-14T19:03:44.499Z,12.00
2022-10-14T19:06:13.047Z,12.10
2022-10-14T19:08:41.470Z,12.10
2022-10-14T19:11:16.146Z,12.10
2022-10-14T19:13:45.172Z,12.10
2022-10-14T19:16:17.418Z,12.10
2022-10-14T19:18:44.633Z,12.10
2022-10-14T19:21:19.216Z,12.20
2022-10-14T19:23:46.065Z,12.20
2022-10-14T19:26:19.250Z,12.10
2022-10-14T19:28:46.262Z,12.10
2022-10-14T19:31:15.659Z,12.10
2022-10-14T19:33:45.087Z,12.10
2022-10-14T19:36:14.561Z,12.10
2022-10-14T19:38:49.706Z,12.10
2022-10-14T19:41:16.635Z,12.10
2022-10-14T19:43:43.670Z,12.10
2022-10-14T19:46:12.119Z,12.00
2022-10-14T19:48:39.449Z,12.10
2022-10-14T19:51:11.052Z,12.10
2022-10-14T19:53:38.471Z,12.10
2022-10-14T19:56:07.879Z,12.20
2022-10-14T19:58:34.618Z,12.20
2022-10-14T20:01:08.345Z,12.30
2022-10-14T20:03:35.851Z,12.30
2022-10-14T20:06:03.560Z,12.30
2022-10-14T20:08:30.346Z,12.40
2022-10-14T20:10:59.861Z,12.40
2022-10-14T20:13:26.535Z,12.40
2022-10-14T20:15:57.828Z,12.50
2022-10-14T20:18:25.502Z,12.50
2022-10-14T20:20:53.073Z,12.50
2022-10-14T20:23:20.313Z,12.40
2022-10-14T20:25:47.591Z,12.30
2022-10-14T20:28:19.314Z,12.30
2022-10-14T20:30:47.225Z,12.30
2022-10-14T20:33:14.180Z,12.40
2022-10-14T20:35:40.997Z,12.40
2022-10-14T20:38:07.705Z,12.60
2022-10-14T20:40:35.567Z,12.70
2022-10-14T20:43:03.639Z,12.80
2022-10-14T20:45:30.684Z,12.90
2022-10-14T20:47:57.629Z,13.00
2022-10-14T20:50:24.541Z,13.10
2022-10-14T20:52:51.329Z,13.10
2022-10-14T20:55:18.164Z,13.20
2022-10-14T20:57:45.090Z,13.20
2022-10-14T21:00:15.856Z,13.30
2022-10-14T21:05:10.426Z,13.30
2022-10-14T21:07:37.345Z,13.30
2022-10-14T21:10:04.826Z,13.40
2022-10-14T21:12:31.682Z,13.40
2022-10-14T21:14:59.045Z,13.50
2022-10-14T21:17:25.781Z,13.40
2022-10-14T21:19:52.513Z,13.50
2022-10-14T21:22:19.353Z,13.50
2022-10-14T21:24:46.079Z,13.50
2022-10-14T21:27:12.880Z,13.50
2022-10-14T21:29:39.601Z,13.50
2022-10-14T21:32:06.326Z,13.60
2022-10-14T21:34:33.690Z,13.60
2022-10-14T21:37:00.536Z,13.60
2022-10-14T21:39:27.376Z,13.70
2022-10-14T21:41:54.345Z,13.70
2022-10-14T21:44:21.448Z,13.80
2022-10-14T21:46:49.181Z,13.80
2022-10-14T21:49:16.361Z,13.70
2022-10-14T21:51:43.142Z,13.70
2022-10-14T21:54:13.081Z,13.80
2022-10-14T21:56:39.928Z,13.80
2022-10-14T21:59:07.498Z,13.80
2022-10-14T22:01:34.712Z,13.80
2022-10-14T22:04:06.390Z,13.80
2022-10-14T22:06:34.775Z,13.80
2022-10-14T22:09:04.447Z,13.80
2022-10-14T22:11:34.759Z,13.80
2022-10-14T22:14:03.303Z,13.80
2022-10-14T22:16:30.669Z,13.80
2022-10-14T22:19:02.466Z,13.80
2022-10-14T22:21:31.650Z,13.80
2022-10-14T22:23:59.371Z,13.80
2022-10-14T22:26:28.348Z,13.80
2022-10-14T22:29:00.399Z,13.80
2022-10-14T22:31:28.589Z,13.80
2022-10-14T22:33:55.959Z,13.80
2022-10-14T22:36:25.356Z,13.70
2022-10-14T22:38:53.387Z,13.70
2022-10-14T22:41:21.499Z,13.70
2022-10-14T22:43:53.011Z,13.80
2022-10-14T22:46:20.630Z,13.80
2022-10-14T22:48:49.059Z,13.80
2022-10-14T22:51:18.278Z,13.80
2022-10-14T22:53:46.102Z,13.70
2022-10-14T22:56:15.748Z,13.80
2022-10-14T22:58:42.818Z,13.90
2022-10-14T23:01:11.828Z,13.80
2022-10-14T23:03:38.554Z,13.90
2022-10-14T23:06:07.107Z,14.00
2022-10-14T23:08:34.594Z,14.00
2022-10-14T23:11:02.437Z,14.00
2022-10-14T23:13:31.053Z,14.00
2022-10-14T23:16:03.273Z,14.00
2022-10-14T23:18:32.210Z,14.00
2022-10-14T23:20:59.007Z,14.00
2022-10-14T23:23:25.696Z,13.90
2022-10-14T23:25:52.523Z,13.90
2022-10-14T23:28:19.356Z,13.90
2022-10-14T23:30:46.072Z,13.90
2022-10-14T23:33:12.826Z,13.90
2022-10-14T23:35:39.549Z,14.00
2022-10-14T23:38:06.323Z,14.00
2022-10-14T23:40:33.463Z,14.00
2022-10-14T23:43:00.165Z,14.00
2022-10-14T23:45:26.851Z,14.00
2022-10-14T23:47:53.523Z,14.00
2022-10-14T23:50:20.242Z,14.00
2022-10-14T23:52:46.952Z,14.00
2022-10-14T23:55:14.399Z,14.00
2022-10-14T23:57:41.354Z,14.00
